sensor_id;sensor_type;location;lat;lon;timestamp;temperature;humidity
4374;DHT22;2201;51.100;6.814;2022-12-26T00:01:45;11.90;98.20
4374;DHT22;2201;51.100;6.814;2022-12-26T00:04:13;11.90;98.20
4374;DHT22;2201;51.100;6.814;2022-12-26T00:06:39;11.80;98.20
4374;DHT22;2201;51.100;6.814;2022-12-26T00:09:06;11.80;98.20
4374;DHT22;2201;51.100;6.814;2022-12-26T00:11:35;11.80;98.20
4374;DHT22;2201;51.100;6.814;2022-12-26T00:14:05;11.80;98.20
4374;DHT22;2201;51.100;6.814;2022-12-26T00:16:33;11.70;98.20
4374;DHT22;2201;51.100;6.814;2022-12-26T00:19:00;11.70;98.20
4374;DHT22;2201;51.100;6.814;2022-12-26T00:21:28;11.70;98.20
4374;DHT22;2201;51.100;6.814;2022-12-26T00:23:56;11.70;98.20
4374;DHT22;2201;51.100;6.814;2022-12-26T00:26:25;11.70;98.20
4374;DHT22;2201;51.100;6.814;2022-12-26T00:28:54;11.70;98.20
4374;DHT22;2201;51.100;6.814;2022-12-26T00:31:22;11.70;98.20
4374;DHT22;2201;51.100;6.814;2022-12-26T00:33:49;11.60;98.20
4374;DHT22;2201;51.100;6.814;2022-12-26T00:36:17;11.70;98.20
4374;DHT22;2201;51.100;6.814;2022-12-26T00:38:45;11.60;98.20
4374;DHT22;2201;51.100;6.814;2022-12-26T00:41:14;11.60;98.20
4374;DHT22;2201;51.100;6.814;2022-12-26T00:43:41;11.60;98.20
4374;DHT22;2201;51.100;6.814;2022-12-26T00:46:09;11.60;98.20
4374;DHT22;2201;51.100;6.814;2022-12-26T00:48:36;11.60;98.20
4374;DHT22;2201;51.100;6.814;2022-12-26T00:51:03;11.60;98.20
4374;DHT22;2201;51.100;6.814;2022-12-26T00:53:30;11.60;98.20
4374;DHT22;2201;51.100;6.814;2022-12-26T00:55:57;11.60;98.20
4374;DHT22;2201;51.100;6.814;2022-12-26T00:58:24;11.60;98.20
4374;DHT22;2201;51.100;6.814;2022-12-26T01:00:51;11.60;98.20
4374;DHT22;2201;51.100;6.814;2022-12-26T01:03:19;11.60;98.20
4374;DHT22;2201;51.100;6.814;2022-12-26T01:05:48;11.60;98.20
4374;DHT22;2201;51.100;6.814;2022-12-26T01:08:15;11.60;98.20
4374;DHT22;2201;51.100;6.814;2022-12-26T01:10:43;11.60;98.20
4374;DHT22;2201;51.100;6.814;2022-12-26T01:13:10;11.60;98.20
4374;DHT22;2201;51.100;6.814;2022-12-26T01:15:37;11.60;98.20
4374;DHT22;2201;51.100;6.814;2022-12-26T01:18:04;11.60;98.20
4374;DHT22;2201;51.100;6.814;2022-12-26T01:20:33;11.60;98.20
4374;DHT22;2201;51.100;6.814;2022-12-26T01:22:59;11.60;98.20
4374;DHT22;2201;51.100;6.814;2022-12-26T01:25:26;11.60;98.20
4374;DHT22;2201;51.100;6.814;2022-12-26T01:27:53;11.60;98.20
4374;DHT22;2201;51.100;6.814;2022-12-26T01:30:20;11.60;98.20
4374;DHT22;2201;51.100;6.814;2022-12-26T01:32:46;11.60;98.20
4374;DHT22;2201;51.100;6.814;2022-12-26T01:35:13;11.60;98.20
4374;DHT22;2201;51.100;6.814;2022-12-26T01:37:41;11.60;98.20
4374;DHT22;2201;51.100;6.814;2022-12-26T01:40:11;11.60;98.20
4374;DHT22;2201;51.100;6.814;2022-12-26T01:42:39;11.60;98.20
4374;DHT22;2201;51.100;6.814;2022-12-26T01:45:20;11.60;98.20
4374;DHT22;2201;51.100;6.814;2022-12-26T01:47:50;11.60;98.20
4374;DHT22;2201;51.100;6.814;2022-12-26T01:50:33;11.70;98.20
4374;DHT22;2201;51.100;6.814;2022-12-26T01:53:07;11.70;98.20
4374;DHT22;2201;51.100;6.814;2022-12-26T01:55:35;11.70;98.20
4374;DHT22;2201;51.100;6.814;2022-12-26T01:58:07;11.80;98.20
4374;DHT22;2201;51.100;6.814;2022-12-26T02:00:36;11.80;98.20
4374;DHT22;2201;51.100;6.814;2022-12-26T02:03:05;11.80;98.20
4374;DHT22;2201;51.100;6.814;2022-12-26T02:05:50;11.80;98.20
4374;DHT22;2201;51.100;6.814;2022-12-26T02:08:21;11.80;98.20
4374;DHT22;2201;51.100;6.814;2022-12-26T02:10:51;11.80;98.20
4374;DHT22;2201;51.100;6.814;2022-12-26T02:13:20;11.90;98.20
4374;DHT22;2201;51.100;6.814;2022-12-26T02:15:47;11.80;98.20
4374;DHT22;2201;51.100;6.814;2022-12-26T02:18:14;11.80;98.20
4374;DHT22;2201;51.100;6.814;2022-12-26T02:20:47;11.80;98.20
4374;DHT22;2201;51.100;6.814;2022-12-26T02:24:11;11.80;98.20
4374;DHT22;2201;51.100;6.814;2022-12-26T02:36:15;11.70;98.20
4374;DHT22;2201;51.100;6.814;2022-12-26T02:38:51;11.70;98.20
4374;DHT22;2201;51.100;6.814;2022-12-26T02:41:24;11.60;98.20
4374;DHT22;2201;51.100;6.814;2022-12-26T02:43:58;11.60;98.20
4374;DHT22;2201;51.100;6.814;2022-12-26T02:46:56;11.50;98.20
4374;DHT22;2201;51.100;6.814;2022-12-26T02:49:35;11.60;98.20
4374;DHT22;2201;51.100;6.814;2022-12-26T02:52:29;11.50;98.20
4374;DHT22;2201;51.100;6.814;2022-12-26T02:55:19;11.50;98.20
4374;DHT22;2201;51.100;6.814;2022-12-26T02:58:13;11.50;98.20
4374;DHT22;2201;51.100;6.814;2022-12-26T03:01:04;11.50;98.20
4374;DHT22;2201;51.100;6.814;2022-12-26T03:03:50;11.50;98.20
4374;DHT22;2201;51.100;6.814;2022-12-26T03:06:50;11.50;98.20
4374;DHT22;2201;51.100;6.814;2022-12-26T03:09:37;11.40;98.20
4374;DHT22;2201;51.100;6.814;2022-12-26T03:12:29;11.50;98.20
4374;DHT22;2201;51.100;6.814;2022-12-26T03:15:13;11.50;98.20
4374;DHT22;2201;51.100;6.814;2022-12-26T03:17:43;11.50;98.20
4374;DHT22;2201;51.100;6.814;2022-12-26T03:20:14;11.40;98.20
4374;DHT22;2201;51.100;6.814;2022-12-26T03:22:45;11.40;98.20
4374;DHT22;2201;51.100;6.814;2022-12-26T03:25:31;11.40;98.20
4374;DHT22;2201;51.100;6.814;2022-12-26T03:28:19;11.40;98.20
4374;DHT22;2201;51.100;6.814;2022-12-26T03:30:46;11.40;98.20
4374;DHT22;2201;51.100;6.814;2022-12-26T03:33:15;11.40;98.20
4374;DHT22;2201;51.100;6.814;2022-12-26T03:36:00;11.40;98.20
4374;DHT22;2201;51.100;6.814;2022-12-26T03:38:33;11.40;98.20
4374;DHT22;2201;51.100;6.814;2022-12-26T03:41:06;11.40;98.20
4374;DHT22;2201;51.100;6.814;2022-12-26T03:44:07;11.40;98.20
4374;DHT22;2201;51.100;6.814;2022-12-26T03:46:59;11.40;98.20
4374;DHT22;2201;51.100;6.814;2022-12-26T03:49:54;11.40;98.20
4374;DHT22;2201;51.100;6.814;2022-12-26T03:52:44;11.40;98.20
4374;DHT22;2201;51.100;6.814;2022-12-26T03:55:40;11.40;98.20
4374;DHT22;2201;51.100;6.814;2022-12-26T03:58:29;11.30;98.20
4374;DHT22;2201;51.100;6.814;2022-12-26T04:01:18;11.30;98.20
4374;DHT22;2201;51.100;6.814;2022-12-26T04:04:07;11.30;98.20
4374;DHT22;2201;51.100;6.814;2022-12-26T04:06:55;11.30;98.20
4374;DHT22;2201;51.100;6.814;2022-12-26T04:09:44;11.30;98.20
4374;DHT22;2201;51.100;6.814;2022-12-26T04:12:31;11.20;98.20
4374;DHT22;2201;51.100;6.814;2022-12-26T04:15:20;11.20;98.20
4374;DHT22;2201;51.100;6.814;2022-12-26T04:18:09;11.20;98.20
4374;DHT22;2201;51.100;6.814;2022-12-26T04:21:06;11.20;98.20
4374;DHT22;2201;51.100;6.814;2022-12-26T04:23:55;11.20;98.20
4374;DHT22;2201;51.100;6.814;2022-12-26T04:26:44;11.20;98.20
4374;DHT22;2201;51.100;6.814;2022-12-26T04:29:32;11.10;98.20
4374;DHT22;2201;51.100;6.814;2022-12-26T04:32:20;11.10;98.20
4374;DHT22;2201;51.100;6.814;2022-12-26T04:35:14;11.10;98.20
4374;DHT22;2201;51.100;6.814;2022-12-26T04:38:02;11.10;98.20
4374;DHT22;2201;51.100;6.814;2022-12-26T04:40:49;11.00;98.20
4374;DHT22;2201;51.100;6.814;2022-12-26T04:43:35;11.00;98.20
4374;DHT22;2201;51.100;6.814;2022-12-26T04:46:22;11.00;98.20
4374;DHT22;2201;51.100;6.814;2022-12-26T04:48:50;11.00;98.20
4374;DHT22;2201;51.100;6.814;2022-12-26T04:51:35;11.00;98.20
4374;DHT22;2201;51.100;6.814;2022-12-26T04:54:03;11.00;98.20
4374;DHT22;2201;51.100;6.814;2022-12-26T04:56:30;11.00;98.20
4374;DHT22;2201;51.100;6.814;2022-12-26T04:58:57;11.00;98.20
4374;DHT22;2201;51.100;6.814;2022-12-26T05:01:25;11.00;98.20
4374;DHT22;2201;51.100;6.814;2022-12-26T05:04:12;11.00;98.20
4374;DHT22;2201;51.100;6.814;2022-12-26T05:06:57;11.00;98.20
4374;DHT22;2201;51.100;6.814;2022-12-26T05:09:42;11.00;98.20
4374;DHT22;2201;51.100;6.814;2022-12-26T05:12:09;11.00;98.20
4374;DHT22;2201;51.100;6.814;2022-12-26T05:14:35;11.00;98.20
4374;DHT22;2201;51.100;6.814;2022-12-26T05:17:05;11.00;98.20
4374;DHT22;2201;51.100;6.814;2022-12-26T05:19:50;11.00;98.20
4374;DHT22;2201;51.100;6.814;2022-12-26T05:22:37;11.00;98.20
4374;DHT22;2201;51.100;6.814;2022-12-26T05:25:26;11.00;98.20
4374;DHT22;2201;51.100;6.814;2022-12-26T05:28:13;11.00;98.20
4374;DHT22;2201;51.100;6.814;2022-12-26T05:30:57;11.00;98.20
4374;DHT22;2201;51.100;6.814;2022-12-26T05:33:26;11.00;98.20
4374;DHT22;2201;51.100;6.814;2022-12-26T05:36:11;11.00;98.20
4374;DHT22;2201;51.100;6.814;2022-12-26T05:38:38;10.90;98.20
4374;DHT22;2201;51.100;6.814;2022-12-26T05:41:05;10.90;98.20
4374;DHT22;2201;51.100;6.814;2022-12-26T05:43:32;11.00;98.20
4374;DHT22;2201;51.100;6.814;2022-12-26T05:45:58;11.00;98.20
4374;DHT22;2201;51.100;6.814;2022-12-26T05:48:27;11.00;98.20
4374;DHT22;2201;51.100;6.814;2022-12-26T05:50:57;11.00;98.20
4374;DHT22;2201;51.100;6.814;2022-12-26T05:53:24;11.00;98.20
4374;DHT22;2201;51.100;6.814;2022-12-26T05:55:51;11.00;98.20
4374;DHT22;2201;51.100;6.814;2022-12-26T05:58:17;11.00;98.20
4374;DHT22;2201;51.100;6.814;2022-12-26T06:00:44;11.00;98.20
4374;DHT22;2201;51.100;6.814;2022-12-26T06:03:13;11.00;98.20
4374;DHT22;2201;51.100;6.814;2022-12-26T06:05:41;11.00;98.20
4374;DHT22;2201;51.100;6.814;2022-12-26T06:08:08;10.90;98.20
4374;DHT22;2201;51.100;6.814;2022-12-26T06:10:34;10.90;98.20
4374;DHT22;2201;51.100;6.814;2022-12-26T06:13:01;10.90;98.20
4374;DHT22;2201;51.100;6.814;2022-12-26T06:15:28;10.90;98.20
4374;DHT22;2201;51.100;6.814;2022-12-26T06:17:55;10.90;98.20
4374;DHT22;2201;51.100;6.814;2022-12-26T06:20:22;10.90;98.20
4374;DHT22;2201;51.100;6.814;2022-12-26T06:22:50;10.90;98.20
4374;DHT22;2201;51.100;6.814;2022-12-26T06:25:17;10.90;98.20
4374;DHT22;2201;51.100;6.814;2022-12-26T06:27:43;10.80;98.20
4374;DHT22;2201;51.100;6.814;2022-12-26T06:30:11;10.90;98.20
4374;DHT22;2201;51.100;6.814;2022-12-26T06:32:37;10.90;98.20
4374;DHT22;2201;51.100;6.814;2022-12-26T06:35:05;10.90;98.20
4374;DHT22;2201;51.100;6.814;2022-12-26T06:37:32;10.80;98.20
4374;DHT22;2201;51.100;6.814;2022-12-26T06:40:00;10.80;98.20
4374;DHT22;2201;51.100;6.814;2022-12-26T06:42:27;10.80;98.20
4374;DHT22;2201;51.100;6.814;2022-12-26T06:44:54;10.80;98.20
4374;DHT22;2201;51.100;6.814;2022-12-26T06:47:21;10.80;98.20
4374;DHT22;2201;51.100;6.814;2022-12-26T06:49:47;10.80;98.20
4374;DHT22;2201;51.100;6.814;2022-12-26T06:52:14;10.80;98.20
4374;DHT22;2201;51.100;6.814;2022-12-26T06:54:41;10.80;98.20
4374;DHT22;2201;51.100;6.814;2022-12-26T06:57:09;10.80;98.20
4374;DHT22;2201;51.100;6.814;2022-12-26T06:59:36;10.80;98.20
4374;DHT22;2201;51.100;6.814;2022-12-26T07:02:02;10.80;98.20
4374;DHT22;2201;51.100;6.814;2022-12-26T07:04:29;10.80;98.20
4374;DHT22;2201;51.100;6.814;2022-12-26T07:06:56;10.80;98.20
4374;DHT22;2201;51.100;6.814;2022-12-26T07:09:26;10.80;98.20
4374;DHT22;2201;51.100;6.814;2022-12-26T07:11:52;10.80;98.20
4374;DHT22;2201;51.100;6.814;2022-12-26T07:14:22;10.80;98.20
4374;DHT22;2201;51.100;6.814;2022-12-26T07:16:48;10.80;98.20
4374;DHT22;2201;51.100;6.814;2022-12-26T07:19:15;10.80;98.20
4374;DHT22;2201;51.100;6.814;2022-12-26T07:21:42;10.80;98.20
4374;DHT22;2201;51.100;6.814;2022-12-26T07:24:13;10.80;98.20
4374;DHT22;2201;51.100;6.814;2022-12-26T07:26:41;10.80;98.20
4374;DHT22;2201;51.100;6.814;2022-12-26T07:29:09;10.80;98.20
4374;DHT22;2201;51.100;6.814;2022-12-26T07:31:37;10.80;98.20
4374;DHT22;2201;51.100;6.814;2022-12-26T07:34:04;10.70;98.20
4374;DHT22;2201;51.100;6.814;2022-12-26T07:36:31;10.70;98.20
4374;DHT22;2201;51.100;6.814;2022-12-26T07:38:58;10.70;98.20
4374;DHT22;2201;51.100;6.814;2022-12-26T07:41:25;10.70;98.20
4374;DHT22;2201;51.100;6.814;2022-12-26T07:44:09;10.70;98.20
4374;DHT22;2201;51.100;6.814;2022-12-26T07:46:37;10.70;98.20
4374;DHT22;2201;51.100;6.814;2022-12-26T07:49:04;10.70;98.20
4374;DHT22;2201;51.100;6.814;2022-12-26T07:51:31;10.60;98.20
4374;DHT22;2201;51.100;6.814;2022-12-26T07:53:58;10.60;98.20
4374;DHT22;2201;51.100;6.814;2022-12-26T07:56:24;10.60;98.20
4374;DHT22;2201;51.100;6.814;2022-12-26T07:58:51;10.50;98.20
4374;DHT22;2201;51.100;6.814;2022-12-26T08:01:18;10.50;98.20
4374;DHT22;2201;51.100;6.814;2022-12-26T08:03:48;10.50;98.20
4374;DHT22;2201;51.100;6.814;2022-12-26T08:06:16;10.50;98.20
4374;DHT22;2201;51.100;6.814;2022-12-26T08:08:43;10.50;98.20
4374;DHT22;2201;51.100;6.814;2022-12-26T08:11:13;10.40;98.20
4374;DHT22;2201;51.100;6.814;2022-12-26T08:13:40;10.40;98.20
4374;DHT22;2201;51.100;6.814;2022-12-26T08:16:09;10.40;98.20
4374;DHT22;2201;51.100;6.814;2022-12-26T08:18:36;10.40;98.20
4374;DHT22;2201;51.100;6.814;2022-12-26T08:21:04;10.40;98.20
4374;DHT22;2201;51.100;6.814;2022-12-26T08:23:31;10.40;98.20
4374;DHT22;2201;51.100;6.814;2022-12-26T08:26:02;10.40;98.20
4374;DHT22;2201;51.100;6.814;2022-12-26T08:28:29;10.40;98.20
4374;DHT22;2201;51.100;6.814;2022-12-26T08:30:56;10.50;98.20
4374;DHT22;2201;51.100;6.814;2022-12-26T08:33:22;10.50;98.20
4374;DHT22;2201;51.100;6.814;2022-12-26T08:35:49;10.50;98.20
4374;DHT22;2201;51.100;6.814;2022-12-26T08:38:17;10.50;98.20
4374;DHT22;2201;51.100;6.814;2022-12-26T08:40:44;10.50;98.20
4374;DHT22;2201;51.100;6.814;2022-12-26T08:43:18;10.50;98.20
4374;DHT22;2201;51.100;6.814;2022-12-26T08:45:44;10.50;98.20
4374;DHT22;2201;51.100;6.814;2022-12-26T08:48:11;10.50;98.20
4374;DHT22;2201;51.100;6.814;2022-12-26T08:50:39;10.50;98.20
4374;DHT22;2201;51.100;6.814;2022-12-26T08:53:06;10.50;98.20
4374;DHT22;2201;51.100;6.814;2022-12-26T08:55:34;10.50;98.20
4374;DHT22;2201;51.100;6.814;2022-12-26T08:58:01;10.50;98.20
4374;DHT22;2201;51.100;6.814;2022-12-26T09:00:28;10.50;98.20
4374;DHT22;2201;51.100;6.814;2022-12-26T09:02:55;10.50;98.20
4374;DHT22;2201;51.100;6.814;2022-12-26T09:05:21;10.50;98.20
4374;DHT22;2201;51.100;6.814;2022-12-26T09:07:48;10.60;98.20
4374;DHT22;2201;51.100;6.814;2022-12-26T09:10:15;10.60;98.20
4374;DHT22;2201;51.100;6.814;2022-12-26T09:12:43;10.60;98.20
4374;DHT22;2201;51.100;6.814;2022-12-26T09:15:10;10.70;98.20
4374;DHT22;2201;51.100;6.814;2022-12-26T09:17:37;10.70;98.20
4374;DHT22;2201;51.100;6.814;2022-12-26T09:20:04;10.70;98.20
4374;DHT22;2201;51.100;6.814;2022-12-26T09:22:31;10.80;98.20
4374;DHT22;2201;51.100;6.814;2022-12-26T09:25:17;10.80;98.20
4374;DHT22;2201;51.100;6.814;2022-12-26T09:27:45;10.80;98.20
4374;DHT22;2201;51.100;6.814;2022-12-26T09:30:13;10.80;98.20
4374;DHT22;2201;51.100;6.814;2022-12-26T09:32:40;10.90;98.20
4374;DHT22;2201;51.100;6.814;2022-12-26T09:35:07;10.90;98.20
4374;DHT22;2201;51.100;6.814;2022-12-26T09:37:34;10.90;98.20
4374;DHT22;2201;51.100;6.814;2022-12-26T09:40:05;10.90;98.20
4374;DHT22;2201;51.100;6.814;2022-12-26T09:42:38;11.00;98.20
4374;DHT22;2201;51.100;6.814;2022-12-26T09:45:13;11.00;98.20
4374;DHT22;2201;51.100;6.814;2022-12-26T09:47:47;11.00;98.20
4374;DHT22;2201;51.100;6.814;2022-12-26T09:50:24;11.00;98.20
4374;DHT22;2201;51.100;6.814;2022-12-26T09:52:55;11.10;98.20
4374;DHT22;2201;51.100;6.814;2022-12-26T09:55:33;11.10;98.20
4374;DHT22;2201;51.100;6.814;2022-12-26T09:58:09;11.10;98.20
4374;DHT22;2201;51.100;6.814;2022-12-26T10:00:44;11.20;98.20
4374;DHT22;2201;51.100;6.814;2022-12-26T10:03:12;11.20;98.20
4374;DHT22;2201;51.100;6.814;2022-12-26T10:05:42;11.30;98.20
4374;DHT22;2201;51.100;6.814;2022-12-26T10:08:22;11.30;98.20
4374;DHT22;2201;51.100;6.814;2022-12-26T10:10:57;11.30;98.20
4374;DHT22;2201;51.100;6.814;2022-12-26T10:13:31;11.40;98.20
4374;DHT22;2201;51.100;6.814;2022-12-26T10:16:05;11.40;98.20
4374;DHT22;2201;51.100;6.814;2022-12-26T10:18:41;11.40;98.20
4374;DHT22;2201;51.100;6.814;2022-12-26T10:21:26;11.40;98.20
4374;DHT22;2201;51.100;6.814;2022-12-26T10:23:56;11.50;98.20
4374;DHT22;2201;51.100;6.814;2022-12-26T10:26:28;11.50;98.20
4374;DHT22;2201;51.100;6.814;2022-12-26T10:29:00;11.50;98.20
4374;DHT22;2201;51.100;6.814;2022-12-26T10:31:34;11.50;98.20
4374;DHT22;2201;51.100;6.814;2022-12-26T10:34:07;11.50;98.20
4374;DHT22;2201;51.100;6.814;2022-12-26T10:36:40;11.50;98.20
4374;DHT22;2201;51.100;6.814;2022-12-26T10:39:13;11.50;98.20
4374;DHT22;2201;51.100;6.814;2022-12-26T10:41:46;11.50;98.20
4374;DHT22;2201;51.100;6.814;2022-12-26T10:44:15;11.50;98.20
4374;DHT22;2201;51.100;6.814;2022-12-26T10:47:06;11.50;98.20
4374;DHT22;2201;51.100;6.814;2022-12-26T10:49:36;11.60;98.20
4374;DHT22;2201;51.100;6.814;2022-12-26T10:52:03;11.60;98.20
4374;DHT22;2201;51.100;6.814;2022-12-26T10:54:30;11.60;98.20
4374;DHT22;2201;51.100;6.814;2022-12-26T10:56:58;11.60;98.20
4374;DHT22;2201;51.100;6.814;2022-12-26T10:59:37;11.60;98.20
4374;DHT22;2201;51.100;6.814;2022-12-26T11:02:21;11.60;98.20
4374;DHT22;2201;51.100;6.814;2022-12-26T11:05:01;11.60;98.20
4374;DHT22;2201;51.100;6.814;2022-12-26T11:07:31;11.50;98.20
4374;DHT22;2201;51.100;6.814;2022-12-26T11:09:59;11.50;98.20
4374;DHT22;2201;51.100;6.814;2022-12-26T11:12:33;11.50;98.20
4374;DHT22;2201;51.100;6.814;2022-12-26T11:15:06;11.50;98.20
4374;DHT22;2201;51.100;6.814;2022-12-26T11:17:39;11.50;98.20
4374;DHT22;2201;51.100;6.814;2022-12-26T11:20:19;11.50;98.20
4374;DHT22;2201;51.100;6.814;2022-12-26T11:22:48;11.50;98.20
4374;DHT22;2201;51.100;6.814;2022-12-26T11:25:19;11.50;98.20
4374;DHT22;2201;51.100;6.814;2022-12-26T11:27:48;11.50;98.20
4374;DHT22;2201;51.100;6.814;2022-12-26T11:30:24;11.50;98.20
4374;DHT22;2201;51.100;6.814;2022-12-26T11:33:10;11.50;98.20
4374;DHT22;2201;51.100;6.814;2022-12-26T11:35:45;11.50;98.20
4374;DHT22;2201;51.100;6.814;2022-12-26T11:38:16;11.50;98.20
4374;DHT22;2201;51.100;6.814;2022-12-26T11:41:00;11.50;98.20
4374;DHT22;2201;51.100;6.814;2022-12-26T11:43:46;11.60;98.20
4374;DHT22;2201;51.100;6.814;2022-12-26T11:46:13;11.60;98.20
4374;DHT22;2201;51.100;6.814;2022-12-26T11:48:47;11.70;98.20
4374;DHT22;2201;51.100;6.814;2022-12-26T11:51:14;11.70;98.20
4374;DHT22;2201;51.100;6.814;2022-12-26T11:53:41;11.80;98.20
4374;DHT22;2201;51.100;6.814;2022-12-26T11:56:08;11.80;98.20
4374;DHT22;2201;51.100;6.814;2022-12-26T11:58:36;11.80;98.20
4374;DHT22;2201;51.100;6.814;2022-12-26T12:01:11;11.80;98.20
4374;DHT22;2201;51.100;6.814;2022-12-26T12:03:41;11.90;98.20
4374;DHT22;2201;51.100;6.814;2022-12-26T12:06:32;12.00;98.20
4374;DHT22;2201;51.100;6.814;2022-12-26T12:09:06;12.00;98.20
4374;DHT22;2201;51.100;6.814;2022-12-26T12:11:44;12.00;98.20
4374;DHT22;2201;51.100;6.814;2022-12-26T12:14:29;12.00;98.20
4374;DHT22;2201;51.100;6.814;2022-12-26T12:17:05;12.00;98.20
4374;DHT22;2201;51.100;6.814;2022-12-26T12:19:58;12.00;98.20
4374;DHT22;2201;51.100;6.814;2022-12-26T12:22:41;12.00;98.20
4374;DHT22;2201;51.100;6.814;2022-12-26T12:25:28;12.10;98.20
4374;DHT22;2201;51.100;6.814;2022-12-26T12:28:03;12.20;98.20
4374;DHT22;2201;51.100;6.814;2022-12-26T12:30:36;12.30;98.20
4374;DHT22;2201;51.100;6.814;2022-12-26T12:33:19;12.30;98.20
4374;DHT22;2201;51.100;6.814;2022-12-26T12:36:00;12.30;98.20
4374;DHT22;2201;51.100;6.814;2022-12-26T12:38:31;12.20;98.20
4374;DHT22;2201;51.100;6.814;2022-12-26T12:41:30;12.20;98.20
4374;DHT22;2201;51.100;6.814;2022-12-26T12:44:04;12.10;98.20
4374;DHT22;2201;51.100;6.814;2022-12-26T12:46:41;11.90;98.20
4374;DHT22;2201;51.100;6.814;2022-12-26T12:49:25;11.80;98.20
4374;DHT22;2201;51.100;6.814;2022-12-26T12:52:02;11.70;98.20
4374;DHT22;2201;51.100;6.814;2022-12-26T12:55:19;11.60;98.20
4374;DHT22;2201;51.100;6.814;2022-12-26T12:57:52;11.50;98.20
4374;DHT22;2201;51.100;6.814;2022-12-26T13:00:24;11.40;98.20
4374;DHT22;2201;51.100;6.814;2022-12-26T13:02:56;11.30;98.20
4374;DHT22;2201;51.100;6.814;2022-12-26T13:05:39;11.20;98.20
4374;DHT22;2201;51.100;6.814;2022-12-26T13:08:14;11.10;98.20
4374;DHT22;2201;51.100;6.814;2022-12-26T13:10:48;11.10;98.20
4374;DHT22;2201;51.100;6.814;2022-12-26T13:13:21;11.00;98.20
4374;DHT22;2201;51.100;6.814;2022-12-26T13:15:54;10.90;98.20
4374;DHT22;2201;51.100;6.814;2022-12-26T13:18:27;10.70;98.20
4374;DHT22;2201;51.100;6.814;2022-12-26T13:21:02;10.60;98.20
4374;DHT22;2201;51.100;6.814;2022-12-26T13:23:34;10.50;98.20
4374;DHT22;2201;51.100;6.814;2022-12-26T13:26:21;10.40;98.20
4374;DHT22;2201;51.100;6.814;2022-12-26T13:28:55;10.40;98.20
4374;DHT22;2201;51.100;6.814;2022-12-26T13:31:24;10.30;98.20
4374;DHT22;2201;51.100;6.814;2022-12-26T13:33:51;10.30;98.20
4374;DHT22;2201;51.100;6.814;2022-12-26T13:36:43;10.30;98.20
4374;DHT22;2201;51.100;6.814;2022-12-26T13:39:35;10.30;98.20
4374;DHT22;2201;51.100;6.814;2022-12-26T13:42:32;10.30;98.20
4374;DHT22;2201;51.100;6.814;2022-12-26T13:45:47;10.30;98.20
4374;DHT22;2201;51.100;6.814;2022-12-26T13:51:50;10.30;98.20
4374;DHT22;2201;51.100;6.814;2022-12-26T13:54:20;10.30;98.20
4374;DHT22;2201;51.100;6.814;2022-12-26T14:00:14;10.30;98.20
4374;DHT22;2201;51.100;6.814;2022-12-26T14:05:35;10.20;98.20
4374;DHT22;2201;51.100;6.814;2022-12-26T14:08:08;10.20;98.20
4374;DHT22;2201;51.100;6.814;2022-12-26T14:10:47;10.20;98.20
4374;DHT22;2201;51.100;6.814;2022-12-26T14:13:36;10.10;98.20
4374;DHT22;2201;51.100;6.814;2022-12-26T14:16:13;10.10;98.20
4374;DHT22;2201;51.100;6.814;2022-12-26T14:18:48;10.10;98.20
4374;DHT22;2201;51.100;6.814;2022-12-26T14:21:32;10.00;98.20
4374;DHT22;2201;51.100;6.814;2022-12-26T14:24:14;10.00;98.20
4374;DHT22;2201;51.100;6.814;2022-12-26T14:26:47;10.00;98.20
4374;DHT22;2201;51.100;6.814;2022-12-26T14:29:22;9.90;98.20
4374;DHT22;2201;51.100;6.814;2022-12-26T14:32:09;9.90;98.20
4374;DHT22;2201;51.100;6.814;2022-12-26T14:34:48;9.90;98.20
4374;DHT22;2201;51.100;6.814;2022-12-26T14:37:20;9.80;98.20
4374;DHT22;2201;51.100;6.814;2022-12-26T14:40:06;9.80;98.20
4374;DHT22;2201;51.100;6.814;2022-12-26T14:45:47;9.60;98.20
4374;DHT22;2201;51.100;6.814;2022-12-26T14:48:41;9.60;98.20
4374;DHT22;2201;51.100;6.814;2022-12-26T14:51:37;9.50;98.20
4374;DHT22;2201;51.100;6.814;2022-12-26T14:54:36;9.50;98.20
4374;DHT22;2201;51.100;6.814;2022-12-26T14:57:38;9.50;98.20
4374;DHT22;2201;51.100;6.814;2022-12-26T15:00:31;9.40;98.20
4374;DHT22;2201;51.100;6.814;2022-12-26T15:03:31;9.40;98.20
4374;DHT22;2201;51.100;6.814;2022-12-26T15:09:28;9.30;98.20
4374;DHT22;2201;51.100;6.814;2022-12-26T15:12:11;9.30;98.20
4374;DHT22;2201;51.100;6.814;2022-12-26T15:15:30;9.20;98.20
4374;DHT22;2201;51.100;6.814;2022-12-26T15:18:16;9.20;98.20
4374;DHT22;2201;51.100;6.814;2022-12-26T15:21:10;9.20;98.20
4374;DHT22;2201;51.100;6.814;2022-12-26T15:26:57;9.20;98.20
4374;DHT22;2201;51.100;6.814;2022-12-26T15:29:50;9.20;98.20
4374;DHT22;2201;51.100;6.814;2022-12-26T15:32:28;9.10;98.20
4374;DHT22;2201;51.100;6.814;2022-12-26T15:35:20;9.10;98.20
4374;DHT22;2201;51.100;6.814;2022-12-26T15:38:03;9.00;98.20
4374;DHT22;2201;51.100;6.814;2022-12-26T15:40:36;9.00;98.20
4374;DHT22;2201;51.100;6.814;2022-12-26T15:43:24;8.90;98.20
4374;DHT22;2201;51.100;6.814;2022-12-26T15:45:57;8.90;98.20
4374;DHT22;2201;51.100;6.814;2022-12-26T15:48:40;8.90;98.20
4374;DHT22;2201;51.100;6.814;2022-12-26T15:51:12;8.80;98.20
4374;DHT22;2201;51.100;6.814;2022-12-26T15:53:55;8.80;98.20
4374;DHT22;2201;51.100;6.814;2022-12-26T15:56:55;8.80;98.20
4374;DHT22;2201;51.100;6.814;2022-12-26T15:59:53;8.70;98.20
4374;DHT22;2201;51.100;6.814;2022-12-26T16:02:42;8.70;98.20
4374;DHT22;2201;51.100;6.814;2022-12-26T16:05:31;8.70;98.20
4374;DHT22;2201;51.100;6.814;2022-12-26T16:08:08;8.60;98.20
4374;DHT22;2201;51.100;6.814;2022-12-26T16:10:41;8.60;98.20
4374;DHT22;2201;51.100;6.814;2022-12-26T16:13:15;8.50;98.20
4374;DHT22;2201;51.100;6.814;2022-12-26T16:15:50;8.50;98.20
4374;DHT22;2201;51.100;6.814;2022-12-26T16:18:19;8.50;98.20
4374;DHT22;2201;51.100;6.814;2022-12-26T16:20:47;8.40;98.20
4374;DHT22;2201;51.100;6.814;2022-12-26T16:23:36;8.40;98.20
4374;DHT22;2201;51.100;6.814;2022-12-26T16:26:06;8.40;98.20
4374;DHT22;2201;51.100;6.814;2022-12-26T16:28:35;8.30;98.20
4374;DHT22;2201;51.100;6.814;2022-12-26T16:31:03;8.30;98.20
4374;DHT22;2201;51.100;6.814;2022-12-26T16:33:33;8.30;98.20
4374;DHT22;2201;51.100;6.814;2022-12-26T16:36:00;8.30;98.20
4374;DHT22;2201;51.100;6.814;2022-12-26T16:38:29;8.30;98.20
4374;DHT22;2201;51.100;6.814;2022-12-26T16:40:57;8.30;98.20
4374;DHT22;2201;51.100;6.814;2022-12-26T16:43:28;8.30;98.20
4374;DHT22;2201;51.100;6.814;2022-12-26T16:46:00;8.20;98.20
4374;DHT22;2201;51.100;6.814;2022-12-26T16:48:30;8.20;98.20
4374;DHT22;2201;51.100;6.814;2022-12-26T16:51:00;8.20;98.20
4374;DHT22;2201;51.100;6.814;2022-12-26T16:53:41;8.10;98.20
4374;DHT22;2201;51.100;6.814;2022-12-26T16:56:23;8.10;98.20
4374;DHT22;2201;51.100;6.814;2022-12-26T16:58:57;8.00;98.20
4374;DHT22;2201;51.100;6.814;2022-12-26T17:01:28;8.00;98.20
4374;DHT22;2201;51.100;6.814;2022-12-26T17:03:57;7.80;98.20
4374;DHT22;2201;51.100;6.814;2022-12-26T17:06:26;7.70;98.20
4374;DHT22;2201;51.100;6.814;2022-12-26T17:08:54;7.60;98.20
4374;DHT22;2201;51.100;6.814;2022-12-26T17:11:27;7.50;98.20
4374;DHT22;2201;51.100;6.814;2022-12-26T17:13:56;7.40;98.20
4374;DHT22;2201;51.100;6.814;2022-12-26T17:16:26;7.30;98.20
4374;DHT22;2201;51.100;6.814;2022-12-26T17:18:54;7.20;98.20
4374;DHT22;2201;51.100;6.814;2022-12-26T17:21:27;7.10;98.20
4374;DHT22;2201;51.100;6.814;2022-12-26T17:24:11;7.00;98.20